Flight Track Log - Related Links

Times and Time Zones

All times are in EDT time to prevent confusion due to time zone crossing. See the CSN3694 flight status page for this flight to view local times or setup timezone preferences in your user account.

Time Position Orientation Groundspeed Altitude Reporting Facility
EDT Latitude Longitude Course Direction KTS MPH feet Rate Location/Type
Sun 02:49:32 AM 42.7679 89.2896 131° Southeast  Level Estimated
Sun 02:50:32 AM 42.6936 89.4042 131° Southeast  Level Estimated
Sun 02:51:32 AM 42.6191 89.5185 132° Southeast  Level Estimated
Sun 02:52:32 AM 42.5446 89.6325 132° Southeast  Level Estimated
Sun 02:53:32 AM 42.4699 89.7462 132° Southeast  Level Estimated
Sun 02:54:32 AM 42.3952 89.8597 132° Southeast  Level Estimated
Sun 02:55:32 AM 42.3203 89.9729 132° Southeast  Level Estimated
Sun 02:56:32 AM 42.2453 90.0858 132° Southeast  Level Estimated
Sun 02:57:32 AM 42.1702 90.1985 132° Southeast  Level Estimated
Sun 02:58:32 AM 42.0950 90.3109 132° Southeast  Level Estimated
Sun 02:59:32 AM 42.0197 90.4230 132° Southeast  Level Estimated
Sun 03:00:32 AM 41.9442 90.5349 132° Southeast  Level Estimated
Sun 03:01:32 AM 41.8687 90.6465 132° Southeast  Level Estimated
Sun 03:02:32 AM 41.7931 90.7578 132° Southeast  Level Estimated
Sun 03:03:32 AM 41.7173 90.8689 132° Southeast  Level Estimated
Sun 03:04:32 AM 41.6415 90.9797 133° Southeast  Level Estimated
Sun 03:05:32 AM 41.5655 91.0902 133° Southeast  Level Estimated
Sun 03:06:32 AM 41.4894 91.2005 133° Southeast  Level Estimated
Sun 03:07:32 AM 41.4133 91.3105 133° Southeast  Level Estimated
Sun 03:08:32 AM 41.3370 91.4203 133° Southeast  Level Estimated
Sun 03:09:32 AM 41.2606 91.5298 133° Southeast  Level Estimated
Sun 03:10:32 AM 41.1841 91.6391 133° Southeast  Level Estimated
Sun 03:11:32 AM 41.1075 91.7481 133° Southeast  Level Estimated
Sun 03:12:32 AM 41.0308 91.8568 133° Southeast  Level Estimated
Sun 03:13:32 AM 40.9540 91.9653 133° Southeast  Level Estimated
Sun 03:14:32 AM 40.8772 92.0736 133° Southeast  Level Estimated
Sun 03:15:32 AM 40.8002 92.1816 133° Southeast  Level Estimated
Sun 03:16:32 AM 40.7231 92.2893 133° Southeast  Level Estimated
Sun 03:17:32 AM 40.6459 92.3968 133° Southeast  Level Estimated
Sun 03:18:32 AM 40.5686 92.5041 134° Southeast  Level Estimated
Sun 03:19:32 AM 40.4912 92.6111 134° Southeast  Level Estimated
Sun 03:20:32 AM 40.4137 92.7178 134° Southeast  Level Estimated
Sun 03:21:32 AM 40.3361 92.8243 134° Southeast  Level Estimated
Sun 03:22:32 AM 40.2584 92.9306 134° Southeast  Level Estimated
Sun 03:23:32 AM 40.1806 93.0366 134° Southeast  Level Estimated
Sun 03:24:32 AM 40.1028 93.1424 134° Southeast  Level Estimated
Sun 03:25:32 AM 40.0248 93.2479 134° Southeast  Level Estimated
Sun 03:26:32 AM 39.9467 93.3532 134° Southeast  Level Estimated
Sun 03:27:32 AM 39.8686 93.4582 134° Southeast  Level Estimated
Sun 03:28:32 AM 39.7903 93.5630 134° Southeast  Level Estimated
Sun 03:29:32 AM 39.7119 93.6676 134° Southeast  Level Estimated
Sun 03:30:32 AM 39.6335 93.7719 134° Southeast  Level Estimated
Sun 03:31:32 AM 39.5550 93.8761 134° Southeast  Level Estimated
Sun 03:32:32 AM 39.4763 93.9799 134° Southeast  Level Estimated
Sun 03:33:32 AM 39.3976 94.0835 135° Southeast  Level Estimated
Sun 03:34:32 AM 39.3188 94.1869 135° Southeast  Level Estimated
Sun 03:35:32 AM 39.2399 94.2901 135° Southeast  Level Estimated
Sun 03:36:32 AM 39.1609 94.3930 135° Southeast  Level Estimated
Sun 03:37:32 AM 39.0818 94.4957 135° Southeast  Level Estimated
Sun 03:38:32 AM 39.0026 94.5982 135° Southeast  Level Estimated
Sun 03:39:32 AM 38.9233 94.7004 135° Southeast  Level Estimated
Sun 03:40:32 AM 38.8440 94.8025 135° Southeast  Level Estimated
Sun 03:41:32 AM 38.7645 94.9042 135° Southeast  Level Estimated
Sun 03:42:32 AM 38.6850 95.0058 135° Southeast  Level Estimated
Sun 03:43:32 AM 38.6054 95.1071 135° Southeast  Level Estimated
Sun 03:44:32 AM 38.5256 95.2082 135° Southeast  Level Estimated
Sun 03:45:32 AM 38.4458 95.3091 135° Southeast  Level Estimated
Sun 03:46:32 AM 38.3660 95.4098 135° Southeast  Level Estimated
Sun 03:47:32 AM 38.2860 95.5102 135° Southeast  Level Estimated
Sun 03:48:32 AM 38.2059 95.6104 136° Southeast  Level Estimated
Sun 03:49:32 AM 38.1258 95.7104 136° Southeast  Level Estimated
Sun 03:50:32 AM 38.0456 95.8102 136° Southeast  Level Estimated
Sun 03:51:32 AM 37.9653 95.9098 136° Southeast  Level Estimated
Sun 03:52:32 AM 37.8849 96.0091 136° Southeast  Level Estimated
Sun 03:53:32 AM 37.8044 96.1082 136° Southeast  Level Estimated
Sun 03:54:32 AM 37.7238 96.2071 136° Southeast  Level Estimated
Sun 03:55:32 AM 37.6432 96.3058 136° Southeast  Level Estimated
Sun 03:56:32 AM 37.5625 96.4043 136° Southeast  Level Estimated
Sun 03:57:32 AM 37.4817 96.5025 136° Southeast  Level Estimated
Sun 03:58:32 AM 37.4008 96.6006 136° Southeast  Level Estimated
Sun 03:59:32 AM 37.3198 96.6984 136° Southeast  Level Estimated
Sun 04:00:32 AM 37.2388 96.7961 136° Southeast  Level Estimated
Sun 04:01:32 AM 37.1576 96.8935 136° Southeast  Level Estimated
Sun 04:02:32 AM 37.0764 96.9907 136° Southeast  Level Estimated
Sun 04:03:32 AM 36.9952 97.0877 136° Southeast  Level Estimated
Sun 04:04:32 AM 36.9138 97.1845 136° Southeast  Level Estimated
Sun 04:05:32 AM 36.8324 97.2811 137° Southeast  Level Estimated
Sun 04:06:32 AM 36.7508 97.3775 137° Southeast  Level Estimated
Sun 04:07:32 AM 36.6692 97.4736 137° Southeast  Level Estimated
Sun 04:08:32 AM 36.5876 97.5696 137° Southeast  Level Estimated
Sun 04:09:32 AM 36.5058 97.6654 137° Southeast  Level Estimated
Sun 04:10:32 AM 36.4240 97.7610 137° Southeast  Level Estimated
Sun 04:11:32 AM 36.3421 97.8563 137° Southeast  Level Estimated
Sun 04:12:32 AM 36.2601 97.9515 137° Southeast  Level Estimated
Sun 04:13:32 AM 36.1781 98.0465 137° Southeast  Level Estimated
Sun 04:14:32 AM 36.0959 98.1412 137° Southeast  Level Estimated
Sun 04:15:32 AM 36.0137 98.2358 137° Southeast  Level Estimated
Sun 04:16:32 AM 35.9314 98.3302 137° Southeast  Level Estimated
Sun 04:17:32 AM 35.8491 98.4244 137° Southeast  Level Estimated
Sun 04:18:32 AM 35.7667 98.5183 137° Southeast  Level Estimated
Sun 04:19:32 AM 35.6842 98.6121 137° Southeast  Level Estimated
Sun 04:20:32 AM 35.6016 98.7057 137° Southeast  Level Estimated
Sun 04:21:32 AM 35.5190 98.7991 137° Southeast  Level Estimated
Sun 04:22:32 AM 35.4362 98.8923 137° Southeast  Level Estimated
Sun 04:23:32 AM 35.3535 98.9854 138° Southeast  Level Estimated
Sun 04:24:32 AM 35.2706 99.0782 138° Southeast  Level Estimated
Sun 04:25:32 AM 35.1877 99.1708 138° Southeast  Level Estimated
Sun 04:26:32 AM 35.1047 99.2633 138° Southeast  Level Estimated
Sun 04:27:32 AM 35.0216 99.3555 138° Southeast  Level Estimated
Sun 04:28:32 AM 34.9384 99.4476 138° Southeast  Level Estimated
Sun 04:29:32 AM 34.8552 99.5395 138° Southeast  Level Estimated
Sun 04:30:32 AM 34.7720 99.6312 138° Southeast  Level Estimated
Sun 04:31:32 AM 34.6886 99.7227 138° Southeast  Level Estimated
Sun 04:32:32 AM 34.6052 99.8140 138° Southeast  Level Estimated
Sun 04:33:32 AM 34.5217 99.9052 138° Southeast  Level Estimated
Sun 04:34:32 AM 34.4382 99.9962 138° Southeast  Level Estimated
Sun 04:35:32 AM 34.3545 100.0870 138° Southeast  Level Estimated
Sun 04:36:32 AM 34.2709 100.1776 138° Southeast  Level Estimated
Sun 04:37:32 AM 34.1871 100.2680 138° Southeast  Level Estimated
Sun 04:38:32 AM 34.1033 100.3582 138° Southeast  Level Estimated
Sun 04:39:32 AM 34.0194 100.4483 138° Southeast  Level Estimated
Sun 04:40:32 AM 33.9355 100.5382 138° Southeast  Level Estimated
Sun 04:41:32 AM 33.8515 100.6279 138° Southeast  Level Estimated
Sun 04:42:32 AM 33.7674 100.7174 139° Southeast  Level Estimated
Sun 04:43:32 AM 33.6832 100.8068 139° Southeast  Level Estimated
Sun 04:44:32 AM 33.5990 100.8960 139° Southeast  Level Estimated
Sun 04:45:32 AM 33.5148 100.9850 139° Southeast  Level Estimated
Sun 04:46:32 AM 33.4304 101.0738 139° Southeast  Level Estimated
Sun 04:47:32 AM 33.3460 101.1625 139° Southeast  Level Estimated
Sun 04:48:32 AM 33.2616 101.2510 139° Southeast  Level Estimated
Sun 04:49:32 AM 33.1770 101.3393 139° Southeast  Level Estimated
Sun 04:50:32 AM 33.0924 101.4274 139° Southeast  Level Estimated
Sun 04:51:32 AM 33.0078 101.5154 139° Southeast  Level Estimated
Sun 04:52:32 AM 32.9231 101.6032 139° Southeast  Level Estimated
Sun 04:53:32 AM 32.8383 101.6908 139° Southeast  Level Estimated
Sun 04:54:32 AM 32.7535 101.7783 139° Southeast  Level Estimated
Sun 04:55:32 AM 32.6686 101.8656 139° Southeast  Level Estimated
Sun 04:56:32 AM 32.5836 101.9528 139° Southeast  Level Estimated
Sun 04:57:32 AM 32.4986 102.0398 139° Southeast  Level Estimated
Sun 04:58:32 AM 32.4136 102.1266 139° Southeast  Level Estimated
Sun 04:59:32 AM 32.3284 102.2132 139° Southeast  Level Estimated
Sun 05:00:32 AM 32.2433 102.2997 139° Southeast  Level Estimated
Sun 05:01:32 AM 32.1580 102.3860 139° Southeast  Level Estimated
Sun 05:02:32 AM 32.0727 102.4722 139° Southeast  Level Estimated
Sun 05:03:32 AM 31.9873 102.5582 140° Southeast  Level Estimated
Sun 05:04:32 AM 31.9019 102.6440 140° Southeast  Level Estimated
Sun 05:05:32 AM 31.8164 102.7297 140° Southeast  Level Estimated
Sun 05:06:32 AM 31.7309 102.8152 140° Southeast  Level Estimated
Sun 05:07:32 AM 31.6453 102.9006 140° Southeast  Level Estimated
Sun 05:08:32 AM 31.5596 102.9858 140° Southeast  Level Estimated
Sun 05:09:32 AM 31.4739 103.0709 140° Southeast  Level Estimated
Sun 05:10:32 AM 31.3882 103.1558 140° Southeast  Level Estimated
Sun 05:11:32 AM 31.3023 103.2405 140° Southeast  Level Estimated
Sun 05:12:32 AM 31.2165 103.3251 140° Southeast  Level Estimated
Sun 05:13:32 AM 31.1305 103.4096 140° Southeast  Level Estimated
Sun 05:14:32 AM 31.0445 103.4938 140° Southeast  Level Estimated
Sun 05:15:32 AM 30.9585 103.5780 140° Southeast  Level Estimated
Sun 05:16:32 AM 30.8724 103.6619 140° Southeast  Level Estimated
Sun 05:17:32 AM 30.7863 103.7458 140° Southeast  Level Estimated
Sun 05:18:32 AM 30.7001 103.8295 140° Southeast  Level Estimated
Sun 05:19:32 AM 30.6138 103.9130 140° Southeast  Level Estimated
Sun 05:20:32 AM 30.5275 103.9964 320° Northwest  Level Estimated
Sun 05:21:32 AM 30.6138 103.9130 140° Southeast  Level Estimated
Sun 05:22:32 AM 30.5275 103.9964 320° Northwest  Level Estimated
Sun 05:23:32 AM 30.6138 103.9130 140° Southeast  Level Estimated
Sun 05:24:32 AM 30.5275 103.9964 320° Northwest  Level Estimated
Sun 05:25:32 AM 30.6138 103.9130 140° Southeast  Level Estimated
Sun 05:26:32 AM 30.5275 103.9964 320° Northwest  Level Estimated
Sun 05:27:32 AM 30.6138 103.9130 140° Southeast  Level Estimated
Sun 05:28:32 AM 30.5275 103.9964 320° Northwest  Level Estimated
Sun 05:29:32 AM 30.6138 103.9130 140° Southeast  Level Estimated
Sun 05:30:32 AM 30.5275 103.9964 320° Northwest  Level Estimated
Sun 05:31:32 AM 30.6138 103.9130 140° Southeast  Level Estimated
Sun 05:32:32 AM 30.5275 103.9964 320° Northwest  Level Estimated
Sun 05:33:32 AM 30.6138 103.9130 140° Southeast  Level Estimated
Sun 05:34:32 AM 30.5275 103.9964 320° Northwest  Level Estimated
Sun 05:35:32 AM 30.6138 103.9130 320° Northwest  Level Estimated

Login

Don't have an account? Register now (free) for customized features, flight alerts, and more!